Time;durP1;ratioP1;P1;durP2;ratioP2;P2;SDS_P1;SDS_P2;PMS_P1;PMS_P2;Temp;Humidity;BMP_temperature;BMP_pressure;BME280_temperature;BME280_humidity;BME280_pressure;Samples;Min_cycle;Max_cycle;Signal;HPM_P1;HPM_P2
2022/07/23 00:01:19;;;;;;;;;;;;;;;14.72;100.00;101980.41;5049536;28;19920;-55
2022/07/23 00:03:45;;;;;;;;;;;;;;;14.70;100.00;101979.59;5031241;28;19966;-57
2022/07/23 00:06:10;;;;;;;;;;;;;;;14.68;100.00;101973.44;5052664;28;20047;-57
2022/07/23 00:08:35;;;;;;;;;;;;;;;14.71;100.00;101970.66;5052298;28;19924;-54
2022/07/23 00:11:00;;;;;;;;;;;;;;;14.71;100.00;101966.19;5034781;28;19917;-56
2022/07/23 00:13:26;;;;;;;;;;;;;;;14.70;100.00;101974.25;5034304;28;19967;-55
2022/07/23 00:15:51;;;;;;;;;;;;;;;14.66;100.00;101954.00;5052527;28;19913;-54
2022/07/23 00:18:17;;;;;;;;;;;;;;;14.61;100.00;101948.00;5052420;28;19982;-57
2022/07/23 00:20:42;;;;;;;;;;;;;;;14.58;100.00;101941.00;5052434;28;19917;-55
2022/07/23 00:23:07;;;;;;;;;;;;;;;14.58;100.00;101943.66;5026886;28;20051;-58
2022/07/23 00:25:32;;;;;;;;;;;;;;;14.56;100.00;101946.38;5052813;28;19975;-58
2022/07/23 00:27:59;;;;;;;;;;;;;;;14.56;100.00;101942.84;5034612;28;19923;-57
2022/07/23 00:30:24;;;;;;;;;;;;;;;14.55;100.00;101949.09;5052134;28;20336;-57
2022/07/23 00:32:54;;;;;;;;;;;;;;;14.53;100.00;101945.66;5052404;28;19966;-56
2022/07/23 00:35:20;;;;;;;;;;;;;;;14.50;100.00;101929.78;5051575;28;20004;-57
2022/07/23 00:37:45;;;;;;;;;;;;;;;14.47;100.00;101930.78;5052113;28;19916;-55
2022/07/23 00:40:11;;;;;;;;;;;;;;;14.43;100.00;101929.19;5051970;28;19974;-56
2022/07/23 00:42:36;;;;;;;;;;;;;;;14.43;100.00;101934.53;5052228;28;19956;-56
2022/07/23 00:45:01;;;;;;;;;;;;;;;14.45;100.00;101934.44;5052073;28;19928;-56
2022/07/23 00:47:26;;;;;;;;;;;;;;;14.47;100.00;101946.78;5034261;28;19917;-55
2022/07/23 00:49:52;;;;;;;;;;;;;;;14.46;100.00;101939.72;5052028;28;19928;-56
2022/07/23 00:52:17;;;;;;;;;;;;;;;14.45;100.00;101934.44;5033915;28;19928;-56
2022/07/23 00:54:42;;;;;;;;;;;;;;;14.40;100.00;101935.53;5051871;28;19927;-55
2022/07/23 00:57:08;;;;;;;;;;;;;;;14.38;100.00;101923.19;5051681;28;19931;-53
2022/07/23 00:59:34;;;;;;;;;;;;;;;14.34;100.00;101935.78;5051824;28;19927;-56
2022/07/23 01:01:59;;;;;;;;;;;;;;;14.34;100.00;101934.94;5034083;28;20019;-56
2022/07/23 01:04:24;;;;;;;;;;;;;;;14.30;100.00;101923.53;5051917;28;19909;-57
2022/07/23 01:06:49;;;;;;;;;;;;;;;14.27;100.00;101913.00;5033748;28;19929;-57
2022/07/23 01:09:15;;;;;;;;;;;;;;;14.23;100.00;101914.94;5051977;28;19921;-56
2022/07/23 01:11:40;;;;;;;;;;;;;;;14.23;100.00;101922.94;5051792;28;19959;-55
2022/07/23 01:14:12;;;;;;;;;;;;;;;14.22;100.00;101921.19;5051979;28;19917;-56
2022/07/23 01:16:38;;;;;;;;;;;;;;;14.19;100.00;101921.31;5051546;28;19925;-57
2022/07/23 01:19:06;;;;;;;;;;;;;;;14.18;100.00;101916.06;5034142;28;20249;-57
2022/07/23 01:21:32;;;;;;;;;;;;;;;14.16;100.00;101921.47;5034208;28;19921;-57
2022/07/23 01:23:57;;;;;;;;;;;;;;;14.16;100.00;101924.13;5051773;28;20391;-57
2022/07/23 01:26:22;;;;;;;;;;;;;;;14.15;100.00;101917.06;5051557;28;19935;-58
2022/07/23 01:28:47;;;;;;;;;;;;;;;14.15;100.00;101913.53;5051638;28;19916;-58
2022/07/23 01:31:12;;;;;;;;;;;;;;;14.13;100.00;101918.94;5051380;28;19921;-57
2022/07/23 01:33:38;;;;;;;;;;;;;;;14.11;100.00;101922.59;5051724;28;19924;-57
2022/07/23 01:36:03;;;;;;;;;;;;;;;14.07;100.00;101922.72;5051803;28;19917;-57
2022/07/23 01:38:28;;;;;;;;;;;;;;;14.03;100.00;101918.44;5033829;28;20330;-56
2022/07/23 01:40:54;;;;;;;;;;;;;;;13.96;100.00;101914.31;5051522;28;19912;-58
2022/07/23 01:43:19;;;;;;;;;;;;;;;13.88;100.00;101914.63;5051540;28;19921;-56
2022/07/23 01:45:44;;;;;;;;;;;;;;;13.83;100.00;101910.44;5033937;28;19917;-57
2022/07/23 01:48:09;;;;;;;;;;;;;;;13.78;100.00;101918.59;5053098;28;19925;-57
2022/07/23 01:50:35;;;;;;;;;;;;;;;13.75;100.00;101919.59;5037350;28;20376;-57
2022/07/23 01:53:00;;;;;;;;;;;;;;;13.72;100.00;101925.06;5055166;28;19928;-57
2022/07/23 01:55:27;;;;;;;;;;;;;;;13.71;100.00;101928.63;5036750;28;21300;-57
2022/07/23 01:57:52;;;;;;;;;;;;;;;13.70;100.00;101931.38;5055133;28;19925;-56
2022/07/23 02:00:17;;;;;;;;;;;;;;;13.67;100.00;101931.47;5037171;28;19970;-56
2022/07/23 02:02:43;;;;;;;;;;;;;;;13.64;100.00;101923.63;5055186;28;20007;-56
2022/07/23 02:05:08;;;;;;;;;;;;;;;13.60;100.00;101917.56;5054844;28;19963;-56
2022/07/23 02:07:33;;;;;;;;;;;;;;;13.56;100.00;101915.94;5055076;28;19917;-56
2022/07/23 02:09:59;;;;;;;;;;;;;;;13.52;100.00;101909.03;5054945;28;19916;-57
2022/07/23 02:12:24;;;;;;;;;;;;;;;13.48;100.00;101912.72;5054963;28;19924;-55
2022/07/23 02:14:49;;;;;;;;;;;;;;;13.45;100.00;101913.69;5054942;28;19921;-57
2022/07/23 02:17:14;;;;;;;;;;;;;;;13.42;100.00;101905.84;5036587;28;20032;-57
2022/07/23 02:19:39;;;;;;;;;;;;;;;13.40;100.00;101911.25;5036999;28;20011;-57
2022/07/23 02:22:05;;;;;;;;;;;;;;;13.38;100.00;101909.56;5036586;28;20000;-58
2022/07/23 02:24:30;;;;;;;;;;;;;;;13.35;100.00;101913.19;5036983;28;20314;-58
2022/07/23 02:26:55;;;;;;;;;;;;;;;13.35;100.00;101912.31;5054083;28;19981;-56
2022/07/23 02:29:20;;;;;;;;;;;;;;;13.33;100.00;101916.84;5054542;28;19923;-57
2022/07/23 02:31:46;;;;;;;;;;;;;;;13.31;100.00;101919.53;5054599;28;19913;-54
2022/07/23 02:34:11;;;;;;;;;;;;;;;13.26;100.00;101914.41;5053454;28;19925;-59
2022/07/23 02:36:37;;;;;;;;;;;;;;;13.24;100.00;101923.38;5053779;28;19943;-56
2022/07/23 02:39:02;;;;;;;;;;;;;;;13.23;100.00;101926.97;5054594;28;20015;-57
2022/07/23 02:41:27;;;;;;;;;;;;;;;13.23;100.00;101921.63;5054582;28;20292;-57
2022/07/23 02:43:52;;;;;;;;;;;;;;;13.21;100.00;101926.13;5054357;28;20116;-56
2022/07/23 02:46:18;;;;;;;;;;;;;;;13.19;100.00;101926.19;5054126;28;20296;-57
2022/07/23 02:48:43;;;;;;;;;;;;;;;13.20;100.00;101927.09;5035995;28;19970;-55
2022/07/23 02:51:08;;;;;;;;;;;;;;;13.22;100.00;101933.19;5036302;28;20114;-57
2022/07/23 02:53:33;;;;;;;;;;;;;;;13.21;100.00;101932.34;5054149;28;19951;-56
2022/07/23 02:55:58;;;;;;;;;;;;;;;13.24;100.00;101937.53;5054325;28;19924;-54
2022/07/23 02:58:26;;;;;;;;;;;;;;;13.30;100.00;101919.59;5031197;28;19926;-55
2022/07/23 03:00:52;;;;;;;;;;;;;;;13.35;100.00;101920.28;5034014;28;19975;-56
2022/07/23 03:03:17;;;;;;;;;;;;;;;13.38;100.00;101928.19;5034042;28;19976;-55
2022/07/23 03:05:42;;;;;;;;;;;;;;;13.40;100.00;101919.22;5032886;28;20341;-56
2022/07/23 03:08:07;;;;;;;;;;;;;;;13.44;100.00;101920.84;5033330;28;19921;-57
2022/07/23 03:10:33;;;;;;;;;;;;;;;13.43;100.00;101920.91;5034096;28;20020;-57
2022/07/23 03:12:58;;;;;;;;;;;;;;;13.40;100.00;101915.69;5033928;28;20361;-57
2022/07/23 03:15:23;;;;;;;;;;;;;;;13.40;100.00;101923.66;5033919;28;20293;-57
2022/07/23 03:17:48;;;;;;;;;;;;;;;13.39;100.00;101917.50;5033509;28;19917;-56
2022/07/23 03:20:14;;;;;;;;;;;;;;;13.39;100.00;101922.81;5032035;28;19925;-56
2022/07/23 03:22:39;;;;;;;;;;;;;;;13.37;100.00;101926.47;5033712;28;19921;-56
2022/07/23 03:25:04;;;;;;;;;;;;;;;13.32;100.00;101917.75;5033646;28;19917;-57
2022/07/23 03:27:30;;;;;;;;;;;;;;;13.26;100.00;101918.84;5033899;28;20020;-51
2022/07/23 03:29:57;;;;;;;;;;;;;;;13.22;100.00;101914.56;5032972;28;20349;-56
2022/07/23 03:32:22;;;;;;;;;;;;;;;13.19;100.00;101917.38;5031985;28;19939;-57
2022/07/23 03:34:48;;;;;;;;;;;;;;;13.16;100.00;101917.47;5033448;28;20369;-56
2022/07/23 03:37:14;;;;;;;;;;;;;;;13.13;100.00;101925.56;5033393;28;20388;-55
2022/07/23 03:39:39;;;;;;;;;;;;;;;13.09;100.00;101919.50;5032960;28;19963;-58
2022/07/23 03:42:05;;;;;;;;;;;;;;;13.09;100.00;101922.16;5032033;28;19921;-57
2022/07/23 03:44:30;;;;;;;;;;;;;;;13.07;100.00;101932.00;5033577;28;19921;-54
2022/07/23 03:46:56;;;;;;;;;;;;;;;13.03;100.00;101933.91;5032121;28;20004;-58
2022/07/23 03:49:21;;;;;;;;;;;;;;;13.04;100.00;101938.28;5032925;28;19917;-57
2022/07/23 03:51:46;;;;;;;;;;;;;;;13.05;100.00;101944.50;5033017;28;19921;-56
2022/07/23 03:54:11;;;;;;;;;;;;;;;13.05;100.00;101934.69;5032985;28;19922;-58
2022/07/23 03:56:37;;;;;;;;;;;;;;;13.11;100.00;101938.94;5033087;28;19967;-57
2022/07/23 03:59:02;;;;;;;;;;;;;;;13.13;100.00;101942.38;5051935;28;19932;-57
2022/07/23 04:01:27;;;;;;;;;;;;;;;13.13;100.00;101945.06;5052783;28;19952;-57
2022/07/23 04:03:52;;;;;;;;;;;;;;;13.13;100.00;101947.72;5052796;28;20007;-57
2022/07/23 04:06:18;;;;;;;;;;;;;;;13.15;100.00;101947.69;5052921;28;19925;-58
2022/07/23 04:08:43;;;;;;;;;;;;;;;13.17;100.00;101952.00;5052577;28;19917;-56
2022/07/23 04:11:08;;;;;;;;;;;;;;;13.21;100.00;101950.06;5051610;28;19917;-57
2022/07/23 04:13:33;;;;;;;;;;;;;;;13.19;100.00;101944.81;5052460;28;20026;-56
2022/07/23 04:15:59;;;;;;;;;;;;;;;13.18;100.00;101948.41;5026782;28;19970;-58
2022/07/23 04:18:24;;;;;;;;;;;;;;;13.18;100.00;101943.09;5020873;28;19925;-57
2022/07/23 04:20:52;;;;;;;;;;;;;;;13.21;100.00;101950.97;5047825;28;19929;-57
2022/07/23 04:23:17;;;;;;;;;;;;;;;13.27;100.00;101944.53;5052560;28;19921;-58
2022/07/23 04:25:43;;;;;;;;;;;;;;;13.34;100.00;101951.34;5052499;28;20280;-56
2022/07/23 04:28:08;;;;;;;;;;;;;;;13.44;100.00;101944.78;5052685;28;20020;-56
2022/07/23 04:30:33;;;;;;;;;;;;;;;13.59;100.00;101950.41;5051569;28;19952;-58
2022/07/23 04:32:59;;;;;;;;;;;;;;;13.73;100.00;101958.75;5018032;28;19978;-56
2022/07/23 04:35:24;;;;;;;;;;;;;;;13.88;100.00;101951.91;5052260;28;19917;-58
2022/07/23 04:37:49;;;;;;;;;;;;;;;14.01;100.00;101949.59;5052305;28;19921;-55
2022/07/23 04:40:14;;;;;;;;;;;;;;;14.11;100.00;101947.44;5050993;28;19927;-57
2022/07/23 04:42:39;;;;;;;;;;;;;;;14.09;100.00;101943.94;5052073;28;19967;-55
2022/07/23 04:45:05;;;;;;;;;;;;;;;14.06;100.00;101946.75;5024421;28;19921;-56
2022/07/23 04:47:31;;;;;;;;;;;;;;;14.03;100.00;101949.56;5040517;28;20304;-56
2022/07/23 04:49:56;;;;;;;;;;;;;;;13.98;100.00;101955.06;5032116;28;19920;-56
2022/07/23 04:52:22;;;;;;;;;;;;;;;13.93;100.00;101957.06;5046893;28;19927;-56
2022/07/23 04:54:47;;;;;;;;;;;;;;;13.90;100.00;101959.81;5051817;28;20638;-57
2022/07/23 04:57:12;;;;;;;;;;;;;;;13.88;100.00;101959.88;5051873;28;19925;-56
2022/07/23 04:59:37;;;;;;;;;;;;;;;13.89;100.00;101958.97;5052129;28;19927;-56
2022/07/23 05:02:03;;;;;;;;;;;;;;;13.89;100.00;101958.13;5034027;28;20399;-54
2022/07/23 05:04:28;;;;;;;;;;;;;;;13.89;100.00;101961.63;5052037;28;19920;-56
2022/07/23 05:06:53;;;;;;;;;;;;;;;13.96;100.00;101953.41;5034195;28;19921;-57
2022/07/23 05:09:18;;;;;;;;;;;;;;;14.04;100.00;101946.81;5052004;28;19917;-56
2022/07/23 05:11:43;;;;;;;;;;;;;;;14.11;100.00;101952.75;5033361;28;19947;-57
2022/07/23 05:14:12;;;;;;;;;;;;;;;14.20;100.00;101956.84;5014040;28;19975;-53
2022/07/23 05:16:37;;;;;;;;;;;;;;;14.29;100.00;101953.78;5031985;28;19921;-57
2022/07/23 05:19:02;;;;;;;;;;;;;;;14.40;100.00;101964.84;5032106;28;19959;-55
2022/07/23 05:21:27;;;;;;;;;;;;;;;14.46;100.00;101960.16;5032666;28;19917;-57
2022/07/23 05:23:52;;;;;;;;;;;;;;;14.49;100.00;101962.69;5053798;28;19925;-55
2022/07/23 05:26:18;;;;;;;;;;;;;;;14.52;100.00;101957.25;5055014;28;20376;-56
2022/07/23 05:28:43;;;;;;;;;;;;;;;14.56;100.00;101959.69;5037850;28;20403;-58
2022/07/23 05:31:08;;;;;;;;;;;;;;;14.64;100.00;101963.84;5055457;28;20408;-58
2022/07/23 05:33:33;;;;;;;;;;;;;;;14.70;100.00;101958.25;5055316;28;19928;-57
2022/07/23 05:36:02;;;;;;;;;;;;;;;14.75;100.00;101956.25;5037968;28;19969;-57
2022/07/23 05:38:28;;;;;;;;;;;;;;;14.80;100.00;101953.41;5037813;28;19974;-57
2022/07/23 05:40:53;;;;;;;;;;;;;;;14.88;100.00;101962.75;5036297;28;20408;-57
2022/07/23 05:43:18;;;;;;;;;;;;;;;14.94;100.00;101964.31;5055204;28;19916;-57
2022/07/23 05:45:43;;;;;;;;;;;;;;;14.99;100.00;101966.78;5055526;28;19917;-57
2022/07/23 05:48:09;;;;;;;;;;;;;;;15.12;100.00;101965.25;5055615;28;20000;-56
2022/07/23 05:50:34;;;;;;;;;;;;;;;15.28;100.00;101980.56;5045670;28;19921;-58
2022/07/23 05:52:59;;;;;;;;;;;;;;;15.44;100.00;101970.03;5031254;28;19929;-57
2022/07/23 05:55:24;;;;;;;;;;;;;;;15.59;100.00;101971.97;5030655;28;20011;-57
2022/07/23 05:57:50;;;;;;;;;;;;;;;15.73;100.00;101974.84;5040312;28;20346;-58
2022/07/23 06:00:15;;;;;;;;;;;;;;;15.79;100.00;101978.16;5026418;28;19920;-58
2022/07/23 06:02:40;;;;;;;;;;;;;;;15.86;100.00;101979.63;5054660;28;19924;-55
2022/07/23 06:05:07;;;;;;;;;;;;;;;15.92;100.00;101979.34;5054411;28;19921;-50
2022/07/23 06:07:32;;;;;;;;;;;;;;;16.01;100.00;101978.88;5053840;28;19959;-58
2022/07/23 06:09:57;;;;;;;;;;;;;;;16.14;100.00;101983.56;5053714;28;19921;-51
2022/07/23 06:12:24;;;;;;;;;;;;;;;16.23;100.00;101980.47;5052544;28;20542;-58
2022/07/23 06:14:51;;;;;;;;;;;;;;;16.27;100.00;101979.34;5020678;28;19966;-58
2022/07/23 06:17:16;;;;;;;;;;;;;;;16.30;100.00;101986.34;5054327;28;19924;-58
2022/07/23 06:19:42;;;;;;;;;;;;;;;16.33;100.00;101979.06;5034157;28;19968;-57
2022/07/23 06:22:07;;;;;;;;;;;;;;;16.33;100.00;101980.84;5051573;28;19964;-58
2022/07/23 06:24:32;;;;;;;;;;;;;;;16.33;100.00;101975.50;5052660;28;20422;-57
2022/07/23 06:26:58;;;;;;;;;;;;;;;16.28;100.00;101970.41;5036092;28;19952;-57
2022/07/23 06:29:23;;;;;;;;;;;;;;;16.33;100.00;101967.47;5054409;28;19928;-58
2022/07/23 06:31:48;;;;;;;;;;;;;;;16.39;100.00;101967.16;5053645;28;20900;-58
2022/07/23 06:34:13;;;;;;;;;;;;;;;16.45;100.00;101960.66;5052554;28;19928;-58
2022/07/23 06:36:39;;;;;;;;;;;;;;;16.51;100.00;101966.53;5053999;28;19917;-58
2022/07/23 06:39:04;;;;;;;;;;;;;;;16.50;100.00;101963.97;5054414;28;19924;-58
2022/07/23 06:41:29;;;;;;;;;;;;;;;16.59;100.00;101975.97;5053169;28;19920;-58
2022/07/23 06:43:54;;;;;;;;;;;;;;;16.62;100.00;101971.31;5053219;28;19920;-58
2022/07/23 06:46:20;;;;;;;;;;;;;;;16.74;100.00;101977.84;5036035;28;19917;-57
2022/07/23 06:48:46;;;;;;;;;;;;;;;16.90;100.00;101982.38;5046050;28;19928;-57
2022/07/23 06:51:11;;;;;;;;;;;;;;;17.00;100.00;101972.94;5039995;28;19917;-57
2022/07/23 06:53:36;;;;;;;;;;;;;;;17.09;100.00;101976.94;5049993;28;19917;-56
2022/07/23 06:56:01;;;;;;;;;;;;;;;17.15;100.00;101979.28;5051200;28;19924;-57
2022/07/23 06:58:27;;;;;;;;;;;;;;;17.20;100.00;101987.94;5053671;28;19951;-57
2022/07/23 07:00:52;;;;;;;;;;;;;;;17.26;100.00;101984.03;5035756;28;19917;-57
2022/07/23 07:03:17;;;;;;;;;;;;;;;17.36;100.00;101995.97;5053105;28;19996;-57
2022/07/23 07:05:43;;;;;;;;;;;;;;;17.40;100.00;101986.81;5052906;28;20383;-57
2022/07/23 07:08:08;;;;;;;;;;;;;;;17.47;100.00;101992.72;5050238;28;19917;-57
2022/07/23 07:10:33;;;;;;;;;;;;;;;17.53;100.00;101990.56;5053366;28;19916;-55
2022/07/23 07:12:58;;;;;;;;;;;;;;;17.60;100.00;101993.75;5053526;28;20398;-57
2022/07/23 07:15:24;;;;;;;;;;;;;;;17.73;100.00;101999.25;5035680;28;19917;-58
2022/07/23 07:17:49;;;;;;;;;;;;;;;17.87;100.00;101998.47;5052200;28;19925;-55
2022/07/23 07:20:14;;;;;;;;;;;;;;;18.07;100.00;102004.53;5052782;28;19917;-56
2022/07/23 07:22:40;;;;;;;;;;;;;;;18.16;97.98;101995.97;5052903;28;20237;-58
2022/07/23 07:25:05;;;;;;;;;;;;;;;18.30;97.97;101995.13;5052907;28;19917;-57
2022/07/23 07:27:31;;;;;;;;;;;;;;;18.38;95.33;101998.25;5053245;28;19921;-57
2022/07/23 07:29:56;;;;;;;;;;;;;;;18.29;96.80;102006.84;5034406;28;20378;-58
2022/07/23 07:32:21;;;;;;;;;;;;;;;18.26;97.54;102002.53;5051213;28;20368;-58
2022/07/23 07:34:46;;;;;;;;;;;;;;;18.15;96.09;102013.00;5053026;28;19923;-58
2022/07/23 07:37:11;;;;;;;;;;;;;;;18.18;97.21;102015.50;5052751;28;19921;-57
2022/07/23 07:39:37;;;;;;;;;;;;;;;18.19;98.05;102006.50;5053189;28;20002;-57
2022/07/23 07:42:02;;;;;;;;;;;;;;;18.17;96.26;102013.75;5052175;28;19952;-58
2022/07/23 07:44:27;;;;;;;;;;;;;;;18.18;94.55;102010.13;5034773;28;19967;-57
2022/07/23 07:46:52;;;;;;;;;;;;;;;18.14;96.86;102011.28;5050160;28;19975;-57
2022/07/23 07:49:19;;;;;;;;;;;;;;;18.20;96.55;102007.34;5050804;28;20019;-58
2022/07/23 07:51:44;;;;;;;;;;;;;;;18.32;96.27;102018.22;5052813;28;20008;-57
2022/07/23 07:54:09;;;;;;;;;;;;;;;18.52;96.05;102018.88;5052588;28;20351;-57
2022/07/23 07:56:34;;;;;;;;;;;;;;;18.72;95.25;102016.81;5044117;28;20357;-57
2022/07/23 07:59:01;;;;;;;;;;;;;;;18.78;94.49;102019.97;5052644;28;20341;-57
2022/07/23 08:01:26;;;;;;;;;;;;;;;18.81;95.08;102022.50;5034761;28;20388;-57
2022/07/23 08:03:51;;;;;;;;;;;;;;;18.86;93.77;102014.13;5051131;28;20011;-57
2022/07/23 08:06:17;;;;;;;;;;;;;;;18.90;91.79;102018.41;5029432;28;19966;-58
2022/07/23 08:08:42;;;;;;;;;;;;;;;18.72;92.62;102016.81;5052553;28;19959;-58
2022/07/23 08:11:07;;;;;;;;;;;;;;;18.70;96.18;102022.28;5050767;28;19979;-57
2022/07/23 08:13:33;;;;;;;;;;;;;;;18.78;95.37;102019.13;5052310;28;20339;-57
2022/07/23 08:15:58;;;;;;;;;;;;;;;18.94;94.47;102028.00;5032893;28;19912;-58
2022/07/23 08:18:23;;;;;;;;;;;;;;;19.08;93.42;102026.25;5051483;28;19925;-57
2022/07/23 08:20:48;;;;;;;;;;;;;;;19.21;93.20;102031.72;5033593;28;19963;-57
2022/07/23 08:23:14;;;;;;;;;;;;;;;19.32;90.29;102037.28;5049788;28;20047;-57
2022/07/23 08:25:40;;;;;;;;;;;;;;;19.31;90.62;102035.59;5051787;28;19920;-57
2022/07/23 08:28:07;;;;;;;;;;;;;;;19.43;90.65;102040.16;5052088;28;19944;-57
2022/07/23 08:30:33;;;;;;;;;;;;;;;19.53;88.96;102028.81;5032881;28;19918;-58
2022/07/23 08:33:00;;;;;;;;;;;;;;;19.54;86.54;102030.56;5031792;28;19958;-58
2022/07/23 08:35:29;;;;;;;;;;;;;;;19.62;86.08;102030.94;5050311;28;19921;-58
2022/07/23 08:37:55;;;;;;;;;;;;;;;19.69;85.86;102037.63;5050547;28;19923;-58
2022/07/23 08:40:21;;;;;;;;;;;;;;;19.77;86.08;102023.69;5052126;28;19932;-57
2022/07/23 08:42:50;;;;;;;;;;;;;;;19.99;84.92;102023.22;5050423;28;19913;-58
2022/07/23 08:45:17;;;;;;;;;;;;;;;20.05;86.26;102030.88;5051520;28;20436;-57
2022/07/23 08:47:43;;;;;;;;;;;;;;;20.09;85.21;102035.06;5033278;28;19928;-58
2022/07/23 08:50:09;;;;;;;;;;;;;;;20.38;84.36;102031.41;5051760;28;19913;-58
2022/07/23 08:52:35;;;;;;;;;;;;;;;21.47;77.30;102030.16;5051680;28;19919;-58
2022/07/23 08:55:01;;;;;;;;;;;;;;;22.39;72.78;102036.88;5050913;28;20401;-57
2022/07/23 08:57:26;;;;;;;;;;;;;;;22.84;71.47;102029.84;5050622;28;19929;-58
2022/07/23 08:59:51;;;;;;;;;;;;;;;24.23;67.14;102037.63;5051305;28;20276;-58
2022/07/23 09:02:17;;;;;;;;;;;;;;;25.57;56.49;102033.28;5047640;28;19931;-58
2022/07/23 09:04:42;;;;;;;;;;;;;;;26.56;48.36;102037.84;5048606;28;20054;-58
2022/07/23 09:07:08;;;;;;;;;;;;;;;26.85;47.42;102044.25;5051634;28;19920;-58
2022/07/23 09:09:33;;;;;;;;;;;;;;;26.50;46.32;102047.41;5031903;28;19943;-58
2022/07/23 09:12:06;;;;;;;;;;;;;;;25.94;50.54;102045.38;5040727;28;20303;-58
2022/07/23 09:14:37;;;;;;;;;;;;;;;26.57;47.46;102044.13;5010295;28;19971;-58
2022/07/23 09:17:10;;;;;;;;;;;;;;;27.13;43.56;102045.16;5049875;28;20382;-58
2022/07/23 09:19:35;;;;;;;;;;;;;;;27.31;44.44;102042.50;5026295;28;19923;-54
2022/07/23 09:22:16;;;;;;;;;;;;;;;27.49;44.06;102047.19;5051783;28;19918;-58
2022/07/23 09:25:01;;;;;;;;;;;;;;;27.19;42.84;102039.13;5020415;28;19916;-58
2022/07/23 09:27:44;;;;;;;;;;;;;;;26.12;47.37;102049.13;5030798;28;20390;-58
2022/07/23 09:30:09;;;;;;;;;;;;;;;26.04;45.91;102042.66;5046082;28;19920;-58
2022/07/23 09:32:35;;;;;;;;;;;;;;;26.50;46.33;102041.13;5050933;28;19921;-58
2022/07/23 09:35:00;;;;;;;;;;;;;;;26.55;45.24;102047.00;5056733;28;19995;-58
2022/07/23 09:37:25;;;;;;;;;;;;;;;26.21;45.52;102044.72;5051793;28;19927;-58
2022/07/23 09:39:50;;;;;;;;;;;;;;;26.24;46.56;102043.56;5050924;28;19924;-58
2022/07/23 09:42:16;;;;;;;;;;;;;;;26.61;44.87;102045.53;5032968;28;20200;-58
2022/07/23 09:44:45;;;;;;;;;;;;;;;26.96;43.21;102041.34;5050647;28;19926;-58
2022/07/23 09:47:10;;;;;;;;;;;;;;;27.64;43.29;102040.22;5051140;28;19913;-58
2022/07/23 09:49:35;;;;;;;;;;;;;;;28.25;43.32;102043.22;5048438;28;20066;-59
2022/07/23 09:52:01;;;;;;;;;;;;;;;28.43;39.61;102054.13;5050450;28;20011;-58
2022/07/23 09:54:28;;;;;;;;;;;;;;;28.35;40.71;102044.03;5031405;28;20376;-58
2022/07/23 09:56:54;;;;;;;;;;;;;;;28.64;39.04;102050.22;5042971;28;19940;-58
2022/07/23 09:59:22;;;;;;;;;;;;;;;28.74;39.76;102049.13;5045576;28;19929;-59
2022/07/23 10:01:47;;;;;;;;;;;;;;;28.21;39.90;102048.16;5037050;28;19921;-58
2022/07/23 10:04:13;;;;;;;;;;;;;;;28.49;39.88;102050.75;5046130;28;19982;-58
2022/07/23 10:06:39;;;;;;;;;;;;;;;28.92;37.97;102045.50;5032706;28;19913;-58
2022/07/23 10:09:04;;;;;;;;;;;;;;;29.16;39.59;102046.63;5052436;28;19924;-58
2022/07/23 10:11:30;;;;;;;;;;;;;;;29.16;38.68;102047.50;5053861;28;20003;-58
2022/07/23 10:13:58;;;;;;;;;;;;;;;29.65;36.92;102054.22;5054348;28;19916;-58
2022/07/23 10:16:23;;;;;;;;;;;;;;;29.03;38.07;102047.06;5054575;28;20215;-58
2022/07/23 10:18:49;;;;;;;;;;;;;;;28.84;37.61;102039.97;5036223;28;19919;-58
2022/07/23 10:21:33;;;;;;;;;;;;;;;27.88;39.11;102049.66;5054641;28;20262;-58
2022/07/23 10:24:04;;;;;;;;;;;;;;;27.49;42.29;102045.31;5035942;28;19956;-58
2022/07/23 10:26:32;;;;;;;;;;;;;;;27.60;40.18;102045.09;5036563;28;19913;-58
2022/07/23 10:29:13;;;;;;;;;;;;;;;28.18;40.59;102040.28;5054096;28;19917;-58
2022/07/23 10:31:46;;;;;;;;;;;;;;;27.94;40.37;102047.19;5051404;28;19987;-58
2022/07/23 10:34:19;;;;;;;;;;;;;;;28.32;38.84;102044.31;5033235;28;20423;-58
2022/07/23 10:36:48;;;;;;;;;;;;;;;28.77;36.77;102039.75;5053912;28;19916;-58
2022/07/23 10:39:20;;;;;;;;;;;;;;;28.52;37.08;102036.84;5035885;28;20287;-58
2022/07/23 10:41:45;;;;;;;;;;;;;;;28.76;37.51;102041.63;5053650;28;20031;-58
2022/07/23 10:44:23;;;;;;;;;;;;;;;28.93;37.34;102041.75;5052584;28;19984;-58
2022/07/23 10:47:05;;;;;;;;;;;;;;;28.69;36.54;102043.28;5050025;28;19917;-58
2022/07/23 10:49:31;;;;;;;;;;;;;;;29.00;37.91;102040.06;5053402;28;19912;-58
2022/07/23 10:52:14;;;;;;;;;;;;;;;29.64;36.31;102041.56;5053648;28;19917;-58
2022/07/23 10:54:40;;;;;;;;;;;;;;;30.08;36.18;102030.44;5052924;28;19916;-58
2022/07/23 10:57:07;;;;;;;;;;;;;;;30.34;36.36;102033.00;5053004;28;20371;-58
2022/07/23 10:59:52;;;;;;;;;;;;;;;29.85;35.57;102032.94;5052867;28;19920;-58
2022/07/23 11:02:22;;;;;;;;;;;;;;;30.29;34.16;102034.53;5049362;28;20001;-58
2022/07/23 11:04:48;;;;;;;;;;;;;;;30.22;35.34;102034.38;5052881;28;19920;-59
2022/07/23 11:07:14;;;;;;;;;;;;;;;30.26;35.50;102035.75;5053152;28;19927;-58
2022/07/23 11:09:41;;;;;;;;;;;;;;;30.16;33.10;102029.59;5052963;28;19921;-58
2022/07/23 11:12:13;;;;;;;;;;;;;;;30.34;33.56;102030.25;5053352;28;19913;-59
2022/07/23 11:14:56;;;;;;;;;;;;;;;30.32;34.88;102034.19;5052670;28;19916;-59
2022/07/23 11:17:22;;;;;;;;;;;;;;;30.29;34.16;102029.06;5048711;28;20490;-59
2022/07/23 11:20:06;;;;;;;;;;;;;;;30.00;31.97;102031.28;5052588;28;19995;-59
2022/07/23 11:22:43;;;;;;;;;;;;;;;29.01;33.71;102028.16;5053296;28;19998;-59
2022/07/23 11:25:08;;;;;;;;;;;;;;;29.47;33.85;102024.31;5052566;28;19916;-58
2022/07/23 11:27:41;;;;;;;;;;;;;;;29.97;35.00;102028.88;5052267;28;19928;-58
2022/07/23 11:30:07;;;;;;;;;;;;;;;29.77;34.23;102013.78;5053018;28;19922;-58
2022/07/23 11:32:35;;;;;;;;;;;;;;;30.59;34.69;102032.16;5053183;28;20050;-59
2022/07/23 11:35:01;;;;;;;;;;;;;;;30.67;30.99;102029.44;5052065;28;19917;-59
2022/07/23 11:37:29;;;;;;;;;;;;;;;30.26;35.04;102027.53;5052407;28;19932;-59
2022/07/23 11:39:55;;;;;;;;;;;;;;;30.03;33.15;102022.75;5049849;28;19917;-58
2022/07/23 11:42:20;;;;;;;;;;;;;;;30.13;33.62;102022.59;5052644;28;19917;-58
2022/07/23 11:44:46;;;;;;;;;;;;;;;30.24;32.79;102025.00;5052198;28;20023;-59
2022/07/23 11:47:14;;;;;;;;;;;;;;;30.08;33.42;102025.81;5049981;28;19921;-58
2022/07/23 11:49:39;;;;;;;;;;;;;;;29.67;35.07;102011.22;5051979;28;19920;-58
2022/07/23 11:52:04;;;;;;;;;;;;;;;29.88;32.31;102017.09;5052796;28;20019;-58
2022/07/23 11:54:30;;;;;;;;;;;;;;;30.07;34.89;102005.00;5052387;28;20288;-58
2022/07/23 11:56:58;;;;;;;;;;;;;;;30.80;33.66;102001.53;5051937;28;19929;-58
2022/07/23 11:59:24;;;;;;;;;;;;;;;31.03;32.77;101999.75;5051770;28;19925;-58
2022/07/23 12:01:56;;;;;;;;;;;;;;;31.15;30.69;101996.66;5052498;28;19940;-58
2022/07/23 12:04:22;;;;;;;;;;;;;;;30.28;33.66;101998.16;5052022;28;19990;-58
2022/07/23 12:06:47;;;;;;;;;;;;;;;29.89;33.13;101996.13;5051811;28;20339;-59
2022/07/23 12:09:12;;;;;;;;;;;;;;;29.81;33.96;101996.06;5051830;28;19921;-59
2022/07/23 12:11:37;;;;;;;;;;;;;;;30.67;30.94;102000.19;5050545;28;19916;-59
2022/07/23 12:14:02;;;;;;;;;;;;;;;30.79;33.82;101999.84;5052027;28;19948;-58
2022/07/23 12:16:28;;;;;;;;;;;;;;;30.56;33.02;102003.28;5049047;28;20338;-58
2022/07/23 12:18:53;;;;;;;;;;;;;;;30.58;32.55;101997.63;5045266;28;20347;-58
2022/07/23 12:21:19;;;;;;;;;;;;;;;30.93;32.74;101996.34;5049934;28;19991;-58
2022/07/23 12:23:47;;;;;;;;;;;;;;;31.39;31.83;102003.91;5051026;28;19917;-58
2022/07/23 12:26:13;;;;;;;;;;;;;;;31.36;30.34;102001.53;5051468;28;20376;-58